createdAt,value
2023-02-24T00:02:06.248Z,16.40
2023-02-24T00:04:38.692Z,16.40
2023-02-24T00:07:10.480Z,16.40
2023-02-24T00:09:40.669Z,16.40
2023-02-24T00:12:15.443Z,16.40
2023-02-24T00:14:46.754Z,16.40
2023-02-24T00:17:16.321Z,16.40
2023-02-24T00:19:46.550Z,16.40
2023-02-24T00:22:15.898Z,16.40
2023-02-24T00:24:46.440Z,16.30
2023-02-24T00:27:17.317Z,16.30
2023-02-24T00:29:47.856Z,16.30
2023-02-24T00:32:17.481Z,16.30
2023-02-24T00:34:47.920Z,16.30
2023-02-24T00:37:23.939Z,16.30
2023-02-24T00:39:57.646Z,16.30
2023-02-24T00:42:28.477Z,16.30
2023-02-24T00:44:57.872Z,16.30
2023-02-24T00:47:27.266Z,16.30
2023-02-24T00:49:56.774Z,16.20
2023-02-24T00:52:27.921Z,16.20
2023-02-24T00:54:58.945Z,16.20
2023-02-24T00:57:35.490Z,16.20
2023-02-24T01:00:10.422Z,16.20
2023-02-24T01:02:39.786Z,16.20
2023-02-24T01:05:12.890Z,16.20
2023-02-24T01:07:42.250Z,16.20
2023-02-24T01:10:13.718Z,16.20
2023-02-24T01:12:54.147Z,16.20
2023-02-24T01:15:24.676Z,16.20
2023-02-24T01:17:54.200Z,16.20
2023-02-24T01:20:23.836Z,16.20
2023-02-24T01:22:54.721Z,16.10
2023-02-24T01:25:24.494Z,16.10
2023-02-24T01:27:55.218Z,16.10
2023-02-24T01:30:24.750Z,16.10
2023-02-24T01:32:54.263Z,16.10
2023-02-24T01:35:24.318Z,16.10
2023-02-24T01:37:53.853Z,16.10
2023-02-24T01:40:26.322Z,16.10
2023-02-24T01:42:57.456Z,16.10
2023-02-24T01:45:30.269Z,16.10
2023-02-24T01:48:03.488Z,16.10
2023-02-24T01:50:36.072Z,16.10
2023-02-24T01:53:08.849Z,16.10
2023-02-24T01:55:46.721Z,16.10
2023-02-24T01:58:26.174Z,16.10
2023-02-24T02:00:58.297Z,16.10
2023-02-24T02:03:32.921Z,16.10
2023-02-24T02:06:05.371Z,16.00
2023-02-24T02:08:37.674Z,16.00
2023-02-24T02:11:10.811Z,16.00
2023-02-24T02:13:45.824Z,16.00
2023-02-24T02:16:43.709Z,16.00
2023-02-24T02:19:58.018Z,16.00
2023-02-24T02:22:47.283Z,16.00
2023-02-24T02:25:25.514Z,16.00
2023-02-24T02:28:46.022Z,16.00
2023-02-24T02:31:51.114Z,16.00
2023-02-24T02:34:41.795Z,16.00
2023-02-24T02:37:16.058Z,16.00
2023-02-24T02:39:58.959Z,16.00
2023-02-24T02:42:32.274Z,15.90
2023-02-24T02:45:10.464Z,16.00
2023-02-24T02:47:45.374Z,15.90
2023-02-24T02:50:22.589Z,15.90
2023-02-24T02:52:57.796Z,15.90
2023-02-24T02:55:34.642Z,15.90
2023-02-24T02:58:09.296Z,15.90
2023-02-24T03:00:50.192Z,15.90
2023-02-24T03:03:21.182Z,15.90
2023-02-24T03:05:58.169Z,15.90
2023-02-24T03:08:34.437Z,15.90
2023-02-24T03:11:06.242Z,15.90
2023-02-24T03:13:41.856Z,15.90
2023-02-24T03:16:13.653Z,15.90
2023-02-24T03:18:51.057Z,15.90
2023-02-24T03:21:29.497Z,15.80
2023-02-24T03:23:59.204Z,15.80
2023-02-24T03:26:33.399Z,15.80
2023-02-24T03:29:11.115Z,15.80
2023-02-24T03:31:47.668Z,15.80
2023-02-24T03:34:23.971Z,15.80
2023-02-24T03:36:55.723Z,15.80
2023-02-24T03:39:26.109Z,15.80
2023-02-24T03:42:09.091Z,15.80
2023-02-24T03:44:38.560Z,15.80
2023-02-24T03:47:09.623Z,15.80
2023-02-24T03:49:43.668Z,15.80
2023-02-24T03:52:25.874Z,15.80
2023-02-24T03:55:13.960Z,15.80
2023-02-24T03:58:01.056Z,15.80
2023-02-24T04:00:56.350Z,15.80
2023-02-24T04:03:32.637Z,15.80
2023-02-24T04:06:21.274Z,15.80
2023-02-24T04:09:01.380Z,15.80
2023-02-24T04:11:43.920Z,15.80
2023-02-24T04:14:24.941Z,15.70
2023-02-24T04:17:01.222Z,15.80
2023-02-24T04:19:38.537Z,15.70
2023-02-24T04:22:11.874Z,15.70
2023-02-24T04:24:45.690Z,15.70
2023-02-24T04:27:17.393Z,15.70
2023-02-24T04:29:52.416Z,15.70
2023-02-24T04:32:27.060Z,15.70
2023-02-24T04:35:04.947Z,15.70
2023-02-24T04:37:37.278Z,15.70
2023-02-24T04:40:12.309Z,15.70
2023-02-24T04:42:46.676Z,15.70
2023-02-24T04:45:17.803Z,15.70
2023-02-24T04:47:51.301Z,15.70
2023-02-24T04:50:25.354Z,15.70
2023-02-24T04:52:56.976Z,15.70
2023-02-24T04:55:33.160Z,15.60
2023-02-24T04:58:03.450Z,15.60
2023-02-24T05:00:35.925Z,15.60
2023-02-24T05:03:07.972Z,15.60
2023-02-24T05:05:37.452Z,15.60
2023-02-24T05:08:09.911Z,15.60
2023-02-24T05:10:45.024Z,15.60
2023-02-24T05:13:17.352Z,15.60
2023-02-24T05:15:49.818Z,15.60
2023-02-24T05:18:20.329Z,15.60
2023-02-24T05:21:09.913Z,15.60
2023-02-24T05:23:44.328Z,15.60
2023-02-24T05:26:18.561Z,15.60
2023-02-24T05:28:52.287Z,15.60
2023-02-24T05:31:26.538Z,15.60
2023-02-24T05:33:58.839Z,15.50
2023-02-24T05:36:30.980Z,15.50
2023-02-24T05:39:06.815Z,15.50
2023-02-24T05:41:42.000Z,15.50
2023-02-24T05:44:16.847Z,15.50
2023-02-24T05:46:49.808Z,15.50
2023-02-24T05:49:23.503Z,15.50
2023-02-24T05:51:57.958Z,15.50
2023-02-24T05:54:30.198Z,15.40
2023-02-24T05:57:02.753Z,15.40
2023-02-24T05:59:33.765Z,15.40
2023-02-24T06:02:07.514Z,15.40
2023-02-24T06:04:46.676Z,15.40
2023-02-24T06:07:20.084Z,15.40
2023-02-24T06:09:53.848Z,15.40
2023-02-24T06:12:28.479Z,15.40
2023-02-24T06:14:59.217Z,15.40
2023-02-24T06:17:29.980Z,15.40
2023-02-24T06:19:59.951Z,15.40
2023-02-24T06:22:29.659Z,15.40
2023-02-24T06:24:59.027Z,15.40
2023-02-24T06:27:29.761Z,15.40
2023-02-24T06:29:59.162Z,15.40
2023-02-24T06:32:28.636Z,15.40
2023-02-24T06:34:59.450Z,15.40
2023-02-24T06:37:30.017Z,15.30
2023-02-24T06:39:59.519Z,15.30
2023-02-24T06:42:30.311Z,15.30
2023-02-24T06:44:59.937Z,15.30
2023-02-24T06:47:29.338Z,15.30
2023-02-24T06:49:58.706Z,15.30
2023-02-24T06:52:28.097Z,15.30
2023-02-24T06:54:57.775Z,15.30
2023-02-24T06:57:29.090Z,15.30
2023-02-24T06:59:59.930Z,15.30
2023-02-24T07:02:39.674Z,15.30
2023-02-24T07:05:14.566Z,15.30
2023-02-24T07:07:46.106Z,15.30
2023-02-24T07:10:15.754Z,15.30
2023-02-24T07:12:45.135Z,15.30
2023-02-24T07:15:17.816Z,15.20
2023-02-24T07:17:48.487Z,15.20
2023-02-24T07:20:25.645Z,15.20
2023-02-24T07:22:55.062Z,15.30
2023-02-24T07:25:33.413Z,15.30
2023-02-24T07:28:02.978Z,15.20
2023-02-24T07:30:34.630Z,15.30
2023-02-24T07:33:04.989Z,15.30
2023-02-24T07:35:35.629Z,15.30
2023-02-24T07:38:05.728Z,15.20
2023-02-24T07:40:36.486Z,15.30
2023-02-24T07:43:06.463Z,15.20
2023-02-24T07:45:37.309Z,15.20
2023-02-24T07:48:06.735Z,15.20
2023-02-24T07:50:38.207Z,15.20
2023-02-24T07:53:07.803Z,15.20
2023-02-24T07:55:38.054Z,15.20
2023-02-24T07:58:07.464Z,15.20
2023-02-24T08:00:58.816Z,15.20
2023-02-24T08:03:31.196Z,15.20
2023-02-24T08:06:13.095Z,15.20
2023-02-24T08:08:58.001Z,15.20
2023-02-24T08:11:34.662Z,15.20
2023-02-24T08:14:04.583Z,15.20
2023-02-24T08:16:40.779Z,15.20
2023-02-24T08:19:13.384Z,15.20
2023-02-24T08:21:47.473Z,15.20
2023-02-24T08:24:19.547Z,15.20
2023-02-24T08:27:05.254Z,15.20
2023-02-24T08:29:40.466Z,15.20
2023-02-24T08:32:12.264Z,15.20
2023-02-24T08:34:44.368Z,15.20
2023-02-24T08:37:15.811Z,15.20
2023-02-24T08:39:46.178Z,15.20
2023-02-24T08:42:15.645Z,15.20
2023-02-24T08:44:46.050Z,15.20
2023-02-24T08:47:21.275Z,15.20
2023-02-24T08:49:53.860Z,15.20
2023-02-24T08:52:23.380Z,15.30
2023-02-24T08:54:54.645Z,15.30
2023-02-24T08:57:26.149Z,15.30
2023-02-24T08:59:58.740Z,15.30
2023-02-24T09:02:29.989Z,15.30
2023-02-24T09:05:03.726Z,15.30
2023-02-24T09:07:36.863Z,15.40
2023-02-24T09:10:11.707Z,15.40
2023-02-24T09:12:43.557Z,15.40
2023-02-24T09:15:15.861Z,15.40
2023-02-24T09:18:01.441Z,15.50
2023-02-24T09:20:48.042Z,15.50
2023-02-24T09:23:21.113Z,15.60
2023-02-24T09:25:54.716Z,15.60
2023-02-24T09:28:26.747Z,15.70
2023-02-24T09:30:58.952Z,15.70
2023-02-24T09:33:39.063Z,15.80
2023-02-24T09:36:13.087Z,15.90
2023-02-24T09:39:09.821Z,16.00
2023-02-24T09:41:57.006Z,16.00
2023-02-24T09:44:34.470Z,16.20
2023-02-24T09:47:20.015Z,16.20
2023-02-24T09:49:56.729Z,16.30
2023-02-24T09:52:39.924Z,16.40
2023-02-24T09:55:26.174Z,16.50
2023-02-24T09:58:43.074Z,16.70
2023-02-24T10:01:31.163Z,16.80
2023-02-24T10:04:20.253Z,17.00
2023-02-24T10:07:05.717Z,17.10
2023-02-24T10:09:38.765Z,17.20
2023-02-24T10:12:17.403Z,17.20
2023-02-24T10:15:00.546Z,17.30
2023-02-24T10:17:40.402Z,17.30
2023-02-24T10:20:31.100Z,17.40
2023-02-24T10:23:09.872Z,17.40
2023-02-24T10:25:54.249Z,17.40
2023-02-24T10:28:36.869Z,17.50
2023-02-24T10:31:25.316Z,17.50
2023-02-24T10:34:01.175Z,17.50
2023-02-24T10:36:36.320Z,17.50
2023-02-24T10:39:20.579Z,17.50
2023-02-24T10:41:57.559Z,17.50
2023-02-24T10:44:36.497Z,17.50
2023-02-24T10:47:14.335Z,17.50
2023-02-24T10:49:57.258Z,17.50
2023-02-24T10:52:45.615Z,17.50
2023-02-24T10:55:39.334Z,17.50
2023-02-24T10:58:27.826Z,17.50
2023-02-24T11:01:12.719Z,17.50
2023-02-24T11:04:02.172Z,17.50
2023-02-24T11:06:51.490Z,17.50
2023-02-24T11:09:35.041Z,17.50
2023-02-24T11:12:33.300Z,17.50
2023-02-24T11:15:25.455Z,17.50
2023-02-24T11:17:58.435Z,17.50
2023-02-24T11:20:48.079Z,17.50
2023-02-24T11:23:24.566Z,17.50
2023-02-24T11:26:00.100Z,17.50
2023-02-24T11:28:56.012Z,17.50
2023-02-24T11:31:41.279Z,17.50
2023-02-24T11:34:21.638Z,17.50
2023-02-24T11:37:02.896Z,17.50
2023-02-24T11:39:50.084Z,17.50
2023-02-24T11:42:28.136Z,17.50
2023-02-24T11:45:06.568Z,17.50
2023-02-24T11:47:43.596Z,17.50
2023-02-24T11:50:30.850Z,17.50
2023-02-24T11:53:06.327Z,17.50
2023-02-24T11:55:42.621Z,17.50
2023-02-24T11:58:20.653Z,17.50
2023-02-24T12:00:59.003Z,17.40
2023-02-24T12:03:36.971Z,17.40
2023-02-24T12:06:18.506Z,17.40
2023-02-24T12:08:53.998Z,17.40
2023-02-24T12:11:35.589Z,17.40
2023-02-24T12:14:37.483Z,17.30
2023-02-24T12:17:19.033Z,17.30
2023-02-24T12:20:01.698Z,17.30
2023-02-24T12:22:40.014Z,17.30
2023-02-24T12:25:15.117Z,17.20
2023-02-24T12:27:59.740Z,17.20
2023-02-24T12:30:49.696Z,17.20
2023-02-24T12:33:43.861Z,17.10
2023-02-24T12:36:30.782Z,17.20
2023-02-24T12:39:09.524Z,17.20
2023-02-24T12:42:04.961Z,17.10
2023-02-24T12:44:46.004Z,17.10
2023-02-24T12:47:18.684Z,17.10
2023-02-24T12:50:23.333Z,17.10
2023-02-24T12:53:01.625Z,17.10
2023-02-24T12:55:42.538Z,17.10
2023-02-24T12:58:17.592Z,17.10
2023-02-24T13:01:03.372Z,17.10
2023-02-24T13:03:56.485Z,17.10
2023-02-24T13:06:41.587Z,17.10
2023-02-24T13:09:22.794Z,17.00
2023-02-24T13:11:56.654Z,17.10
2023-02-24T13:14:31.832Z,17.10
2023-02-24T13:17:19.874Z,17.10
2023-02-24T13:19:52.207Z,17.10
2023-02-24T13:22:30.454Z,17.10
2023-02-24T13:25:19.927Z,17.10
2023-02-24T13:28:00.843Z,17.10
2023-02-24T13:30:42.020Z,17.10
2023-02-24T13:33:29.698Z,17.10
2023-02-24T13:36:14.546Z,17.10
2023-02-24T13:38:50.118Z,17.10
2023-02-24T13:41:40.634Z,17.10
2023-02-24T13:44:27.801Z,17.10
2023-02-24T13:47:30.264Z,17.10
2023-02-24T13:50:20.838Z,17.10
2023-02-24T13:53:23.684Z,17.20
2023-02-24T13:56:15.153Z,17.20
2023-02-24T13:59:25.176Z,17.20
2023-02-24T14:02:01.049Z,17.20
2023-02-24T14:04:33.335Z,17.20
2023-02-24T14:07:11.732Z,17.20
2023-02-24T14:09:45.754Z,17.20
2023-02-24T14:12:20.795Z,17.20
2023-02-24T14:14:51.128Z,17.20
2023-02-24T14:17:28.544Z,17.20
2023-02-24T14:20:11.117Z,17.20
2023-02-24T14:22:45.643Z,17.20
2023-02-24T14:25:15.793Z,17.10
2023-02-24T14:27:49.373Z,17.10
2023-02-24T14:30:29.031Z,17.10
2023-02-24T14:32:58.510Z,17.10
2023-02-24T14:35:36.006Z,17.10
2023-02-24T14:38:06.497Z,17.10
2023-02-24T14:40:35.518Z,17.10
2023-02-24T14:43:16.239Z,17.10
2023-02-24T14:45:51.340Z,17.10
2023-02-24T14:48:27.666Z,17.10
2023-02-24T14:51:00.665Z,17.10
2023-02-24T14:53:31.516Z,17.10
2023-02-24T14:56:05.856Z,17.20
2023-02-24T14:58:44.431Z,17.20
2023-02-24T15:01:24.068Z,17.20
2023-02-24T15:03:57.124Z,17.20
2023-02-24T15:06:30.837Z,17.20
2023-02-24T15:09:04.854Z,17.20
2023-02-24T15:11:37.168Z,17.10
2023-02-24T15:14:20.922Z,17.10
2023-02-24T15:16:54.589Z,17.10
2023-02-24T15:19:28.395Z,17.10
2023-02-24T15:21:57.456Z,17.10
2023-02-24T15:24:30.004Z,17.10
2023-02-24T15:27:02.319Z,17.10
2023-02-24T15:29:33.075Z,17.10
2023-02-24T15:32:07.337Z,17.10
2023-02-24T15:34:38.212Z,17.10
2023-02-24T15:37:17.206Z,17.10
2023-02-24T15:39:46.744Z,17.10
2023-02-24T15:42:28.373Z,17.10
2023-02-24T15:45:00.653Z,17.10
2023-02-24T15:47:33.580Z,17.10
2023-02-24T15:50:02.618Z,17.00
2023-02-24T15:52:31.772Z,17.00
2023-02-24T15:55:02.589Z,17.00
2023-02-24T15:57:33.607Z,17.00
2023-02-24T16:00:11.552Z,17.00
2023-02-24T16:02:41.524Z,17.00
2023-02-24T16:05:15.136Z,17.00
2023-02-24T16:07:46.387Z,17.00
2023-02-24T16:10:22.573Z,16.90
2023-02-24T16:12:55.076Z,16.90
2023-02-24T16:15:30.429Z,16.90
2023-02-24T16:17:59.794Z,16.90
2023-02-24T16:20:32.485Z,16.90
2023-02-24T16:23:04.332Z,16.80
2023-02-24T16:25:39.408Z,16.80
2023-02-24T16:28:08.478Z,16.80
2023-02-24T16:30:39.147Z,16.80
2023-02-24T16:33:11.770Z,16.80
2023-02-24T16:35:42.358Z,16.80
2023-02-24T16:38:15.229Z,16.70
2023-02-24T16:40:47.322Z,16.70
2023-02-24T16:43:17.313Z,16.70
2023-02-24T16:45:48.182Z,16.70
2023-02-24T16:48:21.959Z,16.70
2023-02-24T16:50:51.955Z,16.70
2023-02-24T16:53:23.737Z,16.70
2023-02-24T16:55:52.822Z,16.60
2023-02-24T16:58:23.334Z,16.60
2023-02-24T17:00:59.015Z,16.60
2023-02-24T17:03:39.769Z,16.60
2023-02-24T17:06:09.040Z,16.60
2023-02-24T17:08:38.228Z,16.60
2023-02-24T17:11:07.924Z,16.60
2023-02-24T17:13:37.157Z,16.50
2023-02-24T17:16:10.268Z,16.50
2023-02-24T17:18:39.298Z,16.50
2023-02-24T17:21:08.352Z,16.50
2023-02-24T17:23:37.422Z,16.40
2023-02-24T17:26:06.880Z,16.40
2023-02-24T17:28:35.874Z,16.40
2023-02-24T17:31:09.030Z,16.40
2023-02-24T17:33:38.111Z,16.30
2023-02-24T17:36:07.599Z,16.30
2023-02-24T17:38:39.602Z,16.30
2023-02-24T17:41:08.624Z,16.20
2023-02-24T17:43:37.606Z,16.20
2023-02-24T17:46:07.480Z,16.20
2023-02-24T17:48:37.988Z,16.20
2023-02-24T17:51:07.164Z,16.20
2023-02-24T17:53:36.168Z,16.10
2023-02-24T17:56:07.446Z,16.10
2023-02-24T17:58:36.971Z,16.10
2023-02-24T18:01:07.796Z,16.10
2023-02-24T18:03:38.499Z,16.10
2023-02-24T18:06:10.369Z,16.00
2023-02-24T18:08:40.816Z,16.00
2023-02-24T18:11:13.857Z,16.00
2023-02-24T18:13:42.916Z,15.90
2023-02-24T18:16:14.181Z,16.00
2023-02-24T18:18:44.611Z,15.90
2023-02-24T18:21:13.990Z,15.90
2023-02-24T18:23:43.169Z,15.90
2023-02-24T18:26:13.909Z,15.90
2023-02-24T18:28:43.286Z,15.90
2023-02-24T18:31:15.095Z,15.80
2023-02-24T18:33:47.866Z,15.80
2023-02-24T18:36:20.923Z,15.80
2023-02-24T18:38:50.233Z,15.80
2023-02-24T18:41:23.393Z,15.80
2023-02-24T18:43:55.745Z,15.70
2023-02-24T18:46:28.131Z,15.80
2023-02-24T18:48:58.876Z,15.70
2023-02-24T18:51:29.050Z,15.70
2023-02-24T18:54:00.572Z,15.70
2023-02-24T18:56:32.317Z,15.60
2023-02-24T18:59:05.217Z,15.60
2023-02-24T19:01:36.924Z,15.60
2023-02-24T19:04:08.812Z,15.60
2023-02-24T19:06:38.105Z,15.60
2023-02-24T19:09:10.851Z,15.50
2023-02-24T19:11:41.383Z,15.50
2023-02-24T19:14:13.873Z,15.50
2023-02-24T19:16:43.260Z,15.50
2023-02-24T19:19:16.050Z,15.40
2023-02-24T19:21:45.907Z,15.40
2023-02-24T19:24:15.306Z,15.40
2023-02-24T19:26:45.922Z,15.40
2023-02-24T19:29:16.336Z,15.40
2023-02-24T19:31:45.729Z,15.40
2023-02-24T19:34:16.445Z,15.30
2023-02-24T19:36:48.422Z,15.30
2023-02-24T19:39:18.649Z,15.30
2023-02-24T19:41:49.687Z,15.30
2023-02-24T19:44:21.453Z,15.20
2023-02-24T19:46:53.160Z,15.20
2023-02-24T19:49:23.522Z,15.20
2023-02-24T19:51:55.227Z,15.20
2023-02-24T19:54:27.957Z,15.10
2023-02-24T19:56:57.881Z,15.10
2023-02-24T19:59:27.180Z,15.00
2023-02-24T20:01:56.253Z,15.00
2023-02-24T20:04:26.719Z,15.00
2023-02-24T20:06:55.706Z,14.90
2023-02-24T20:09:24.905Z,14.90
2023-02-24T20:11:57.252Z,14.90
2023-02-24T20:14:30.635Z,14.80
2023-02-24T20:17:00.445Z,14.80
2023-02-24T20:19:34.658Z,14.80
2023-02-24T20:22:04.527Z,14.70
2023-02-24T20:24:35.812Z,14.70
2023-02-24T20:27:05.236Z,14.70
2023-02-24T20:29:35.303Z,14.70
2023-02-24T20:32:04.823Z,14.70
2023-02-24T20:34:37.527Z,14.70
2023-02-24T20:37:07.552Z,14.60
2023-02-24T20:39:36.627Z,14.60
2023-02-24T20:42:05.714Z,14.60
2023-02-24T20:44:34.830Z,14.60
2023-02-24T20:47:03.904Z,14.50
2023-02-24T20:49:34.355Z,14.50
2023-02-24T20:52:06.615Z,14.50
2023-02-24T20:54:36.054Z,14.50
2023-02-24T20:57:05.280Z,14.40
2023-02-24T20:59:34.276Z,14.40
2023-02-24T21:02:03.299Z,14.40
2023-02-24T21:04:32.318Z,14.40
2023-02-24T21:07:02.850Z,14.40
2023-02-24T21:09:37.116Z,14.40
2023-02-24T21:12:09.633Z,14.30
2023-02-24T21:14:38.773Z,14.30
2023-02-24T21:17:08.244Z,14.30
2023-02-24T21:19:37.271Z,14.30
2023-02-24T21:22:07.766Z,14.30
2023-02-24T21:24:36.804Z,14.30
2023-02-24T21:27:05.829Z,14.30
2023-02-24T21:29:34.892Z,14.30
2023-02-24T21:32:04.376Z,14.30
2023-02-24T21:34:33.439Z,14.30
2023-02-24T21:37:02.625Z,14.30
2023-02-24T21:39:33.268Z,14.20
2023-02-24T21:42:02.256Z,14.30
2023-02-24T21:44:31.560Z,14.20
2023-02-24T21:47:00.531Z,14.20
2023-02-24T21:49:30.257Z,14.20
2023-02-24T21:51:59.252Z,14.20
2023-02-24T21:54:28.630Z,14.20
2023-02-24T21:56:59.148Z,14.20
2023-02-24T21:59:28.238Z,14.20
2023-02-24T22:01:57.588Z,14.10
2023-02-24T22:04:26.607Z,14.20
2023-02-24T22:06:55.681Z,14.10
2023-02-24T22:09:25.573Z,14.10
2023-02-24T22:11:54.548Z,14.10
2023-02-24T22:14:24.940Z,14.10
2023-02-24T22:16:56.979Z,14.10
2023-02-24T22:19:26.185Z,14.10
2023-02-24T22:21:55.164Z,14.10
2023-02-24T22:24:24.144Z,14.10
2023-02-24T22:26:55.378Z,14.10
2023-02-24T22:29:25.716Z,14.10
2023-02-24T22:31:54.743Z,14.10
2023-02-24T22:34:23.769Z,14.10
2023-02-24T22:36:53.647Z,14.10
2023-02-24T22:39:23.306Z,14.10
2023-02-24T22:41:52.914Z,14.00
2023-02-24T22:44:21.917Z,14.00
2023-02-24T22:46:52.374Z,14.00
2023-02-24T22:49:21.416Z,14.00
2023-02-24T22:51:50.559Z,14.00
2023-02-24T22:54:22.234Z,14.00
2023-02-24T22:56:51.235Z,14.00
2023-02-24T22:59:20.245Z,14.00
2023-02-24T23:01:49.244Z,14.00
2023-02-24T23:04:19.758Z,14.00
2023-02-24T23:06:48.805Z,14.00
2023-02-24T23:09:19.889Z,14.00
2023-02-24T23:11:49.659Z,14.00
2023-02-24T23:14:18.887Z,14.00
2023-02-24T23:16:55.473Z,14.00
2023-02-24T23:19:25.975Z,14.00
2023-02-24T23:21:56.472Z,14.00
2023-02-24T23:24:25.694Z,14.00
2023-02-24T23:26:57.705Z,14.00
2023-02-24T23:29:30.806Z,13.90
2023-02-24T23:32:00.035Z,13.90
2023-02-24T23:34:30.611Z,13.90
2023-02-24T23:36:59.649Z,13.90
2023-02-24T23:39:28.999Z,13.90
2023-02-24T23:41:58.009Z,13.80
2023-02-24T23:44:27.190Z,13.80
2023-02-24T23:46:58.190Z,13.80
2023-02-24T23:49:39.064Z,13.80
2023-02-24T23:52:13.145Z,13.80
2023-02-24T23:54:42.117Z,13.80
2023-02-24T23:57:11.528Z,13.70
2023-02-24T23:59:40.524Z,13.70
